Time;durP1;ratioP1;P1;durP2;ratioP2;P2;SDS_P1;SDS_P2;PMS_P1;PMS_P2;Temp;Humidity;BMP_temperature;BMP_pressure;BME280_temperature;BME280_humidity;BME280_pressure;Samples;Min_cycle;Max_cycle;Signal;HPM_P1;HPM_P2
2023/09/12 00:00:06;;;;;;;18.63;12.45;;;;;;;16.66;100.00;93728.88;5092093;28;20040;-57
2023/09/12 00:02:33;;;;;;;17.90;12.05;;;;;;;16.68;100.00;93727.22;5090829;28;20482;-56
2023/09/12 00:05:00;;;;;;;21.90;12.85;;;;;;;16.72;100.00;93718.72;5091544;28;20040;-58
2023/09/12 00:07:26;;;;;;;19.17;12.90;;;;;;;16.70;100.00;93719.19;5090949;28;20040;-57
2023/09/12 00:09:53;;;;;;;20.30;13.63;;;;;;;16.64;100.00;93718.28;5091753;28;20048;-57
2023/09/12 00:12:23;;;;;;;21.30;13.10;;;;;;;16.68;100.00;93720.88;5091494;28;20044;-58
2023/09/12 00:14:51;;;;;;;16.92;12.30;;;;;;;16.70;100.00;93713.66;5091007;28;20549;-58
2023/09/12 00:17:17;;;;;;;16.65;12.00;;;;;;;16.67;100.00;93713.81;5091306;28;20048;-57
2023/09/12 00:19:44;;;;;;;17.90;12.32;;;;;;;16.57;100.00;93704.72;5091068;28;20044;-58
2023/09/12 00:22:11;;;;;;;19.17;12.30;;;;;;;16.32;100.00;93709.28;5091548;28;20489;-57
2023/09/12 00:24:38;;;;;;;18.02;12.65;;;;;;;16.16;100.00;93715.09;5091022;28;20549;-57
2023/09/12 00:27:05;;;;;;;43.17;25.17;;;;;;;16.20;100.00;93712.94;5090353;28;20043;-58
2023/09/12 00:29:32;;;;;;;56.22;33.33;;;;;;;16.26;100.00;93707.56;5090728;28;20040;-57
2023/09/12 00:31:59;;;;;;;24.30;15.88;;;;;;;16.26;100.00;93704.78;5091271;28;20056;-58
2023/09/12 00:34:26;;;;;;;19.07;13.60;;;;;;;16.33;100.00;93716.34;5090904;28;20412;-56
2023/09/12 00:36:53;;;;;;;20.75;13.52;;;;;;;16.32;100.00;93706.50;5078048;28;20046;-58
2023/09/12 00:39:19;;;;;;;20.58;13.07;;;;;;;16.33;100.00;93704.50;5090876;28;20046;-58
2023/09/12 00:41:46;;;;;;;21.20;13.10;;;;;;;16.35;100.00;93704.81;5077360;28;20044;-58
2023/09/12 00:44:13;;;;;;;20.42;13.20;;;;;;;16.32;100.00;93705.75;5091019;28;20180;-58
2023/09/12 00:46:40;;;;;;;19.80;13.03;;;;;;;16.31;100.00;93704.19;5090281;28;20042;-58
2023/09/12 00:49:09;;;;;;;21.95;13.23;;;;;;;16.25;100.00;93706.78;5090686;28;20044;-58
2023/09/12 00:51:37;;;;;;;20.13;12.38;;;;;;;16.20;100.00;93701.88;5090621;28;20032;-57
2023/09/12 00:54:04;;;;;;;21.92;13.75;;;;;;;16.18;100.00;93699.56;5090977;28;20060;-58
2023/09/12 00:56:32;;;;;;;21.52;13.52;;;;;;;16.13;100.00;93699.38;5089249;28;20040;-57
2023/09/12 00:58:59;;;;;;;21.37;13.53;;;;;;;16.11;100.00;93701.84;5091075;28;20055;-58
2023/09/12 01:01:26;;;;;;;19.90;12.93;;;;;;;16.10;100.00;93703.06;5089412;28;20052;-57
2023/09/12 01:03:54;;;;;;;21.10;13.65;;;;;;;16.05;100.00;93700.88;5090431;28;20481;-58
2023/09/12 01:06:25;;;;;;;19.50;12.93;;;;;;;15.98;100.00;93697.19;5090529;28;20051;-58
2023/09/12 01:08:53;;;;;;;18.23;13.27;;;;;;;15.96;100.00;93707.16;5089805;28;20853;-58
2023/09/12 01:11:20;;;;;;;20.53;12.83;;;;;;;15.96;100.00;93710.69;5090925;28;20062;-58
2023/09/12 01:13:47;;;;;;;19.25;13.27;;;;;;;15.91;100.00;93710.53;5071422;28;20044;-58
2023/09/12 01:16:13;;;;;;;21.73;13.63;;;;;;;15.89;100.00;93712.97;5090489;28;20070;-58
2023/09/12 01:18:42;;;;;;;22.92;13.95;;;;;;;15.79;100.00;93714.94;5088571;28;20047;-58
2023/09/12 01:21:12;;;;;;;20.17;13.88;;;;;;;15.72;100.00;93712.41;5089976;28;20071;-58
2023/09/12 01:23:57;;;;;;;19.03;13.93;;;;;;;15.74;100.00;93713.53;5089390;28;20044;-58
2023/09/12 01:26:40;;;;;;;21.58;14.68;;;;;;;15.77;100.00;93720.16;5090307;28;20052;-58
2023/09/12 01:29:08;;;;;;;21.35;13.43;;;;;;;15.77;100.00;93712.63;5089504;28;20185;-58
2023/09/12 01:31:37;;;;;;;21.60;13.88;;;;;;;15.75;100.00;93717.84;5089429;28;20070;-57
2023/09/12 01:34:10;;;;;;;20.00;13.80;;;;;;;15.72;100.00;93712.41;5090277;28;20042;-58
2023/09/12 01:36:37;;;;;;;18.27;13.27;;;;;;;15.73;100.00;93711.22;5089621;28;20036;-58
2023/09/12 01:39:04;;;;;;;21.50;13.60;;;;;;;15.65;100.00;93710.69;5089988;28;20047;-58
2023/09/12 01:41:35;;;;;;;19.48;13.23;;;;;;;15.67;100.00;93711.00;5089301;28;20039;-58
2023/09/12 01:44:03;;;;;;;18.58;12.80;;;;;;;15.66;100.00;93703.16;5088636;28;20051;-58
2023/09/12 01:46:32;;;;;;;19.30;13.57;;;;;;;15.66;100.00;93705.94;5089392;28;20040;-57
2023/09/12 01:49:00;;;;;;;22.80;13.40;;;;;;;15.65;100.00;93709.91;5089942;28;20051;-58
2023/09/12 01:51:28;;;;;;;20.25;13.15;;;;;;;15.65;100.00;93707.91;5089163;28;20048;-57
2023/09/12 01:53:55;;;;;;;19.55;13.05;;;;;;;15.61;100.00;93712.81;5089651;28;20316;-58
2023/09/12 01:56:23;;;;;;;20.88;13.70;;;;;;;15.33;100.00;93707.16;5075844;28;20038;-58
2023/09/12 01:58:50;;;;;;;23.40;13.63;;;;;;;15.26;100.00;93712.16;5088686;28;20044;-58
2023/09/12 02:01:17;;;;;;;19.03;13.33;;;;;;;15.30;100.00;93705.25;5089772;28;20036;-58
2023/09/12 02:03:44;;;;;;;19.85;13.32;;;;;;;15.30;100.00;93718.31;5089025;28;20048;-57
2023/09/12 02:06:10;;;;;;;21.42;13.77;;;;;;;15.29;100.00;93714.78;5089528;28;20048;-58
2023/09/12 02:08:37;;;;;;;21.08;13.40;;;;;;;15.30;100.00;93715.56;5094065;28;20058;-57
2023/09/12 02:11:04;;;;;;;20.88;13.68;;;;;;;15.31;100.00;93715.13;5094131;28;20059;-58
2023/09/12 02:13:31;;;;;;;20.53;13.43;;;;;;;15.37;100.00;93715.28;5088930;28;20036;-58
2023/09/12 02:16:02;;;;;;;20.50;13.77;;;;;;;15.36;100.00;93720.06;5089412;28;20052;-58
2023/09/12 02:18:30;;;;;;;19.67;13.27;;;;;;;15.37;100.00;93720.81;5088795;28;20052;-58
2023/09/12 02:20:58;;;;;;;21.75;13.75;;;;;;;15.37;100.00;93718.03;5089489;28;20043;-58
2023/09/12 02:23:25;;;;;;;21.35;13.85;;;;;;;15.35;100.00;93720.50;5089018;28;20056;-58
2023/09/12 02:25:51;;;;;;;20.60;14.13;;;;;;;15.28;100.00;93709.72;5088755;28;21707;-58
2023/09/12 02:28:18;;;;;;;21.33;14.32;;;;;;;15.30;100.00;93718.31;5089214;28;21096;-58
2023/09/12 02:30:45;;;;;;;22.08;14.57;;;;;;;15.29;100.00;93711.25;5088876;28;20044;-58
2023/09/12 02:33:12;;;;;;;22.20;14.00;;;;;;;15.30;100.00;93712.78;5089101;28;20036;-58
2023/09/12 02:35:39;;;;;;;22.77;13.52;;;;;;;15.32;100.00;93710.34;5088680;28;20047;-57
2023/09/12 02:38:06;;;;;;;24.43;14.00;;;;;;;15.25;100.00;93710.59;5089270;28;20048;-57
2023/09/12 02:40:32;;;;;;;21.90;13.90;;;;;;;15.18;100.00;93714.41;5088602;28;20043;-58
2023/09/12 02:42:59;;;;;;;21.02;14.57;;;;;;;15.10;100.00;93710.34;5089329;28;20054;-59
2023/09/12 02:45:26;;;;;;;23.67;14.20;;;;;;;15.08;100.00;93710.81;5088640;28;20651;-57
2023/09/12 02:47:52;;;;;;;21.20;14.65;;;;;;;15.02;100.00;93706.31;5088898;28;20407;-58
2023/09/12 02:50:19;;;;;;;20.90;14.67;;;;;;;15.05;100.00;93710.91;5089355;28;20040;-59
2023/09/12 02:52:46;;;;;;;23.98;14.13;;;;;;;15.03;100.00;93705.88;5088529;28;20488;-58
2023/09/12 02:55:13;;;;;;;21.85;14.52;;;;;;;15.00;100.00;93703.22;5088938;28;20048;-58
2023/09/12 02:57:39;;;;;;;39.58;23.92;;;;;;;15.02;100.00;93707.06;5088531;28;20048;-56
2023/09/12 03:00:08;;;;;;;23.13;14.75;;;;;;;14.95;100.00;93705.34;5089242;28;20678;-56
2023/09/12 03:02:35;;;;;;;19.57;13.37;;;;;;;14.75;100.00;93711.16;5088020;28;20036;-57
2023/09/12 03:05:02;;;;;;;25.27;14.30;;;;;;;14.60;100.00;93710.09;5088707;28;20651;-57
2023/09/12 03:07:30;;;;;;;22.38;14.15;;;;;;;14.62;100.00;93706.91;5088211;28;20036;-59
2023/09/12 03:09:56;;;;;;;21.17;13.77;;;;;;;14.71;100.00;93707.00;5078298;28;20055;-59
2023/09/12 03:12:23;;;;;;;21.98;14.25;;;;;;;14.77;100.00;93702.44;5092642;28;20040;-58
2023/09/12 03:14:50;;;;;;;21.07;13.93;;;;;;;14.84;100.00;93698.66;5090911;28;20036;-59
2023/09/12 03:17:16;;;;;;;19.25;13.40;;;;;;;14.89;100.00;93687.00;5092661;28;20036;-59
2023/09/12 03:19:43;;;;;;;20.98;14.07;;;;;;;14.92;100.00;93691.66;5091946;28;20051;-58
2023/09/12 03:22:10;;;;;;;23.70;15.15;;;;;;;14.80;100.00;93692.47;5079747;28;20066;-59
2023/09/12 03:24:37;;;;;;;26.52;14.85;;;;;;;14.83;100.00;93699.84;5092356;28;20054;-58
2023/09/12 03:27:04;;;;;;;21.27;14.43;;;;;;;14.86;100.00;93693.44;5086003;28;20058;-58
2023/09/12 03:29:31;;;;;;;22.33;14.18;;;;;;;14.84;100.00;93701.41;5091993;28;20036;-58
2023/09/12 03:31:58;;;;;;;22.67;14.73;;;;;;;14.85;100.00;93697.41;5092086;28;20493;-56
2023/09/12 03:34:25;;;;;;;22.52;15.00;;;;;;;14.70;100.00;93706.19;5092250;28;20052;-57
2023/09/12 03:36:51;;;;;;;21.52;14.75;;;;;;;14.70;100.00;93697.16;5089602;28;20658;-57
2023/09/12 03:39:18;;;;;;;22.90;14.43;;;;;;;14.71;100.00;93704.22;5078922;28;20049;-58
2023/09/12 03:41:45;;;;;;;22.05;14.38;;;;;;;14.70;100.00;93697.91;5078361;28;20509;-58
2023/09/12 03:44:12;;;;;;;23.10;14.82;;;;;;;14.64;100.00;93699.72;5092081;28;20044;-58
2023/09/12 03:46:38;;;;;;;23.88;14.82;;;;;;;14.56;100.00;93699.19;5091848;28;20044;-58
2023/09/12 03:49:05;;;;;;;24.90;14.68;;;;;;;14.66;100.00;93700.03;5092048;28;20036;-58
2023/09/12 03:51:34;;;;;;;26.00;15.03;;;;;;;14.62;100.00;93696.63;5091780;28;20511;-58
2023/09/12 03:54:02;;;;;;;20.98;14.20;;;;;;;14.64;100.00;93699.72;5092067;28;20043;-58
2023/09/12 03:56:29;;;;;;;26.10;14.88;;;;;;;14.64;100.00;93698.94;5091697;28;20044;-57
2023/09/12 03:58:57;;;;;;;23.65;15.00;;;;;;;14.65;100.00;93695.75;5091822;28;20048;-58
2023/09/12 04:01:24;;;;;;;26.25;14.90;;;;;;;14.63;100.00;93692.66;5091920;28;20046;-58
2023/09/12 04:03:51;;;;;;;23.57;14.57;;;;;;;14.71;100.00;93693.94;5089423;28;20286;-58
2023/09/12 04:06:18;;;;;;;22.52;14.55;;;;;;;14.71;100.00;93693.19;5091424;28;20429;-58
2023/09/12 04:08:45;;;;;;;23.05;14.50;;;;;;;14.62;100.00;93690.34;5091162;28;20070;-58
2023/09/12 04:11:11;;;;;;;24.42;14.30;;;;;;;14.47;100.00;93693.56;5091796;28;20052;-58
2023/09/12 04:13:38;;;;;;;23.33;14.23;;;;;;;14.37;100.00;93698.22;5091056;28;20046;-58
2023/09/12 04:16:05;;;;;;;23.67;15.20;;;;;;;14.26;100.00;93695.03;5091525;28;20058;-58
2023/09/12 04:18:32;;;;;;;24.35;15.70;;;;;;;14.27;100.00;93691.06;5091181;28;20089;-58
2023/09/12 04:20:59;;;;;;;22.65;14.88;;;;;;;14.34;100.00;93696.34;5090601;28;20052;-58
2023/09/12 04:23:25;;;;;;;23.48;14.75;;;;;;;14.30;100.00;93695.69;5093275;28;20038;-58
2023/09/12 04:25:52;;;;;;;22.13;14.63;;;;;;;14.25;100.00;93695.50;5086969;28;20039;-58
2023/09/12 04:28:19;;;;;;;24.00;15.03;;;;;;;14.28;100.00;93694.59;5093515;28;20048;-58
2023/09/12 04:30:45;;;;;;;22.08;14.15;;;;;;;14.35;100.00;93697.13;5090858;28;20052;-58
2023/09/12 04:33:13;;;;;;;23.27;14.23;;;;;;;14.36;100.00;93693.91;5091011;28;20048;-58
2023/09/12 04:35:40;;;;;;;21.92;13.93;;;;;;;14.38;100.00;93693.47;5090777;28;20047;-58
2023/09/12 04:38:06;;;;;;;24.25;14.35;;;;;;;14.34;100.00;93696.34;5091328;28;20050;-58
2023/09/12 04:40:33;;;;;;;25.37;14.87;;;;;;;14.28;100.00;93692.59;5090659;28;20047;-58
2023/09/12 04:43:00;;;;;;;22.00;14.88;;;;;;;14.15;100.00;93691.84;5090997;28;20042;-58
2023/09/12 04:45:27;;;;;;;23.83;14.95;;;;;;;14.13;100.00;93703.34;5090547;28;20040;-58
2023/09/12 04:47:53;;;;;;;24.05;15.13;;;;;;;14.20;100.00;93702.31;5090757;28;20055;-58
2023/09/12 04:50:20;;;;;;;25.70;15.35;;;;;;;14.29;100.00;93698.91;5091080;28;20054;-58
2023/09/12 04:52:47;;;;;;;26.43;16.03;;;;;;;14.33;100.00;93691.28;5089061;28;20040;-58
2023/09/12 04:55:13;;;;;;;25.23;15.40;;;;;;;14.35;100.00;93697.88;5090739;28;20058;-58
2023/09/12 04:57:40;;;;;;;30.70;17.27;;;;;;;14.13;100.00;93695.06;5089542;28;20040;-58
2023/09/12 05:00:10;;;;;;;25.85;15.75;;;;;;;14.18;100.00;93697.28;5090517;28;20042;-58
2023/09/12 05:02:37;;;;;;;25.45;16.10;;;;;;;14.25;100.00;93699.00;5089858;28;20032;-58
2023/09/12 05:05:04;;;;;;;26.53;15.60;;;;;;;14.33;100.00;93700.31;5090453;28;20036;-59
2023/09/12 05:07:31;;;;;;;25.40;15.80;;;;;;;14.38;100.00;93701.75;5089627;28;20036;-58
2023/09/12 05:09:58;;;;;;;25.23;15.18;;;;;;;14.23;100.00;93706.22;5090634;28;20048;-58
2023/09/12 05:12:25;;;;;;;27.67;15.93;;;;;;;14.24;100.00;93708.50;5089262;28;20512;-59
2023/09/12 05:14:52;;;;;;;24.92;15.70;;;;;;;14.34;100.00;93714.88;5091442;28;20794;-59
2023/09/12 05:17:18;;;;;;;25.27;15.13;;;;;;;14.51;100.00;93712.78;5099714;27;20046;-59
2023/09/12 05:19:45;;;;;;;26.15;15.75;;;;;;;14.51;100.00;93704.50;5088735;28;20055;-58
2023/09/12 05:22:12;;;;;;;23.80;14.82;;;;;;;14.53;100.00;93704.81;5090015;28;20048;-59
2023/09/12 05:24:38;;;;;;;22.95;14.70;;;;;;;14.60;100.00;93703.81;5089889;28;20050;-59
2023/09/12 05:27:05;;;;;;;24.08;15.18;;;;;;;14.78;100.00;93701.22;5089490;28;20052;-59
2023/09/12 05:29:32;;;;;;;24.63;14.70;;;;;;;14.98;100.00;93692.63;5089723;28;20051;-58
2023/09/12 05:31:59;;;;;;;22.10;14.35;;;;;;;15.07;100.00;93708.47;5089903;28;20404;-59
2023/09/12 05:34:26;;;;;;;23.45;14.50;;;;;;;15.09;100.00;93708.81;5089862;28;20485;-58
2023/09/12 05:36:53;;;;;;;21.60;13.82;;;;;;;14.80;100.00;93717.34;5089668;28;20040;-59
2023/09/12 05:39:20;;;;;;;21.05;13.85;;;;;;;14.78;100.00;93715.03;5089540;28;20044;-58
2023/09/12 05:41:46;;;;;;;20.50;14.03;;;;;;;14.86;100.00;93721.06;5089203;28;20043;-59
2023/09/12 05:44:17;;;;;;;21.38;14.23;;;;;;;15.04;100.00;93712.16;5089213;28;20059;-59
2023/09/12 05:46:47;;;;;;;21.40;14.25;;;;;;;15.40;100.00;93714.41;5089278;28;20040;-58
2023/09/12 05:49:15;;;;;;;21.83;14.13;;;;;;;15.68;100.00;93709.03;5089512;28;20232;-58
2023/09/12 05:51:42;;;;;;;24.08;14.50;;;;;;;15.74;100.00;93710.00;5090027;28;20054;-59
2023/09/12 05:54:09;;;;;;;27.93;13.93;;;;;;;15.87;100.00;93710.66;5101739;28;20101;-59
2023/09/12 05:56:36;;;;;;;23.23;13.90;;;;;;;16.09;100.00;93707.81;5089286;28;20084;-58
2023/09/12 05:59:03;;;;;;;19.55;13.25;;;;;;;16.22;100.00;93707.72;5089297;28;20409;-58
2023/09/12 06:01:30;;;;;;;23.42;13.52;;;;;;;16.11;100.00;93707.38;5089199;28;20040;-59
2023/09/12 06:03:56;;;;;;;22.38;14.20;;;;;;;15.74;100.00;93716.28;5089118;28;20044;-58
2023/09/12 06:06:24;;;;;;;20.40;13.80;;;;;;;15.60;100.00;93716.81;5085191;28;20040;-59
2023/09/12 06:08:51;;;;;;;21.67;14.88;;;;;;;15.82;100.00;93714.03;5076580;28;20102;-59
2023/09/12 06:11:18;;;;;;;23.42;14.75;;;;;;;15.73;100.00;93709.22;5077622;28;20176;-58
2023/09/12 06:13:44;;;;;;;24.95;14.82;;;;;;;15.77;100.00;93717.38;5076718;28;20048;-59
2023/09/12 06:16:11;;;;;;;23.27;15.13;;;;;;;15.88;100.00;93723.28;5076252;28;20060;-58
2023/09/12 06:18:38;;;;;;;21.00;14.70;;;;;;;15.97;100.00;93717.00;5071366;28;20060;-59
2023/09/12 06:21:08;;;;;;;22.75;14.07;;;;;;;15.91;100.00;93729.88;5092172;28;20042;-59
2023/09/12 06:23:35;;;;;;;22.30;13.70;;;;;;;15.83;100.00;93729.38;5092230;28;20039;-59
2023/09/12 06:26:02;;;;;;;25.50;14.35;;;;;;;15.67;100.00;93729.59;5089880;28;20050;-59
2023/09/12 06:28:30;;;;;;;23.35;14.45;;;;;;;15.68;100.00;93729.16;5091037;28;20051;-59
2023/09/12 06:30:58;;;;;;;22.80;14.13;;;;;;;15.78;100.00;93735.53;5088339;28;20048;-59
2023/09/12 06:33:26;;;;;;;23.98;14.05;;;;;;;16.16;100.00;93731.69;5088937;28;20058;-59
2023/09/12 06:35:53;;;;;;;24.38;14.15;;;;;;;15.99;100.00;93731.16;5087898;28;21028;-59
2023/09/12 06:38:21;;;;;;;22.27;13.90;;;;;;;16.04;100.00;93729.81;5088935;28;20530;-59
2023/09/12 06:40:48;;;;;;;23.13;14.80;;;;;;;16.58;100.00;93739.50;5088871;28;20120;-59
2023/09/12 06:43:15;;;;;;;23.07;14.50;;;;;;;17.21;100.00;93736.50;5089959;28;20373;-59
2023/09/12 06:45:42;;;;;;;20.73;13.77;;;;;;;17.69;100.00;93726.41;5092606;28;20039;-59
2023/09/12 06:48:09;;;;;;;21.88;13.65;;;;;;;17.60;100.00;93737.50;5083397;28;20052;-59
2023/09/12 06:50:38;;;;;;;22.33;13.57;;;;;;;17.73;100.00;93727.00;5090827;28;20385;-59
2023/09/12 06:53:06;;;;;;;22.27;14.25;;;;;;;18.02;100.00;93727.72;5102272;28;20117;-59
2023/09/12 06:55:34;;;;;;;19.60;13.80;;;;;;;18.22;100.00;93732.72;5092692;28;20602;-59
2023/09/12 06:58:01;;;;;;;21.23;13.75;;;;;;;18.63;100.00;93727.56;5092969;28;20040;-57
2023/09/12 07:00:27;;;;;;;21.83;13.20;;;;;;;19.51;100.00;93718.72;5092471;28;20048;-57
2023/09/12 07:02:55;;;;;;;18.88;13.25;;;;;;;19.84;100.00;93723.38;5092717;28;20063;-57
2023/09/12 07:05:21;;;;;;;21.45;13.02;;;;;;;19.00;100.00;93733.69;5092703;28;20055;-57
2023/09/12 07:07:48;;;;;;;17.67;12.57;;;;;;;19.44;100.00;93729.47;5092260;28;20489;-58
2023/09/12 07:10:15;;;;;;;17.15;12.50;;;;;;;20.40;100.00;93722.69;5092691;28;20044;-58
2023/09/12 07:12:50;;;;;;;18.70;13.20;;;;;;;20.58;100.00;93719.66;5079884;28;20059;-58
2023/09/12 07:15:17;;;;;;;18.88;12.38;;;;;;;22.27;100.00;93723.59;5092652;28;20268;-57
2023/09/12 07:17:44;;;;;;;16.42;12.40;;;;;;;25.16;100.00;93718.09;5092350;28;20050;-58
2023/09/12 07:20:11;;;;;;;16.50;12.07;;;;;;;26.44;88.73;93719.91;5092432;28;20099;-57
2023/09/12 07:22:39;;;;;;;18.20;11.85;;;;;;;26.38;84.68;93716.38;5092273;28;20048;-58
2023/09/12 07:25:09;;;;;;;15.82;11.98;;;;;;;26.59;84.08;93719.56;5092430;28;20394;-58
2023/09/12 07:27:36;;;;;;;17.38;12.15;;;;;;;27.07;82.51;93718.06;5091975;28;20040;-58
2023/09/12 07:30:04;;;;;;;16.45;11.50;;;;;;;28.97;73.90;93715.81;5092008;28;20034;-58
2023/09/12 07:32:31;;;;;;;16.40;11.27;;;;;;;30.99;65.41;93718.38;5092113;28;20055;-58
2023/09/12 07:34:58;;;;;;;13.70;10.65;;;;;;;32.88;57.07;93710.97;5092073;28;20047;-59
2023/09/12 07:37:25;;;;;;;15.27;10.73;;;;;;;33.53;52.66;93715.44;5092418;28;20042;-58
2023/09/12 07:39:51;;;;;;;14.10;10.68;;;;;;;30.61;57.46;93726.53;5091009;28;20841;-59
2023/09/12 07:42:22;;;;;;;16.00;11.02;;;;;;;29.18;65.14;93730.13;5092511;28;20040;-58
2023/09/12 07:44:49;;;;;;;16.30;10.23;;;;;;;30.96;61.15;93725.13;5091638;28;20040;-58
2023/09/12 07:47:17;;;;;;;16.58;10.38;;;;;;;32.34;56.04;93732.84;5092204;28;20066;-59
2023/09/12 07:49:43;;;;;;;13.13;10.65;;;;;;;32.64;53.90;93726.47;5091392;28;20493;-58
2023/09/12 07:52:10;;;;;;;14.88;11.13;;;;;;;33.18;50.56;93718.72;5091978;28;20054;-58
2023/09/12 07:54:37;;;;;;;18.33;10.07;;;;;;;32.81;50.89;93725.91;5089817;28;20040;-59
2023/09/12 07:57:04;;;;;;;13.30;10.13;;;;;;;31.84;55.26;93730.19;5091840;28;20462;-59
2023/09/12 07:59:31;;;;;;;14.13;10.30;;;;;;;32.64;53.29;93729.31;5091553;28;20040;-58
2023/09/12 08:01:57;;;;;;;13.05;9.70;;;;;;;34.41;47.72;93732.56;5092062;28;20048;-59
2023/09/12 08:04:24;;;;;;;12.50;9.90;;;;;;;34.54;46.47;93725.81;5091708;28;20054;-59
2023/09/12 08:06:51;;;;;;;14.45;10.02;;;;;;;34.50;45.38;93724.72;5090602;28;20435;-59
2023/09/12 08:09:50;;;;;;;12.43;10.50;;;;;;;34.65;46.52;93716.06;5091816;28;20046;-58
2023/09/12 08:12:21;;;;;;;13.13;10.60;;;;;;;35.12;44.81;93722.19;5090893;28;21715;-59
2023/09/12 08:14:48;;;;;;;15.18;10.10;;;;;;;35.40;44.09;93724.59;5091259;28;20044;-59
2023/09/12 08:17:16;;;;;;;12.30;9.60;;;;;;;36.67;42.83;93730.56;5091738;28;20508;-59
2023/09/12 08:19:42;;;;;;;11.82;9.45;;;;;;;36.45;42.69;93730.25;5091139;28;20046;-59
2023/09/12 08:22:10;;;;;;;11.07;9.83;;;;;;;35.96;43.31;93732.78;5091440;28;20110;-59
2023/09/12 08:24:38;;;;;;;12.18;9.70;;;;;;;34.74;46.49;93732.56;5091248;28;20400;-59
2023/09/12 08:27:06;;;;;;;13.38;10.57;;;;;;;32.81;49.79;93731.59;5091248;28;20036;-59
2023/09/12 08:29:33;;;;;;;13.23;10.77;;;;;;;33.68;48.55;93723.19;5090862;28;20047;-59
2023/09/12 08:32:00;;;;;;;13.50;10.38;;;;;;;33.52;48.19;93720.34;5091153;28;20472;-59
2023/09/12 08:34:27;;;;;;;11.93;10.40;;;;;;;34.58;47.62;93714.03;5090945;28;20040;-58
2023/09/12 08:36:54;;;;;;;13.07;10.07;;;;;;;35.84;43.17;93711.78;5091267;28;20040;-59
2023/09/12 08:39:25;;;;;;;13.98;10.43;;;;;;;36.28;42.60;93716.00;5091367;28;20066;-59
2023/09/12 08:41:53;;;;;;;13.05;9.93;;;;;;;36.98;39.85;93711.53;5077674;28;20358;-59
2023/09/12 08:44:21;;;;;;;10.52;9.43;;;;;;;38.70;37.59;93712.09;5089648;28;20044;-59
2023/09/12 08:46:48;;;;;;;11.27;9.33;;;;;;;38.06;37.08;93709.63;5090863;28;20044;-59
2023/09/12 08:49:16;;;;;;;12.05;9.50;;;;;;;38.40;35.78;93707.03;5091042;28;20058;-59
2023/09/12 08:51:44;;;;;;;11.63;9.13;;;;;;;38.94;35.31;93704.44;5090509;28;20047;-59
2023/09/12 08:54:11;;;;;;;11.85;8.88;;;;;;;38.69;34.75;93704.09;5090815;28;20100;-59
2023/09/12 08:56:41;;;;;;;11.40;9.43;;;;;;;38.06;35.09;93708.88;5090079;28;20040;-59
2023/09/12 08:59:10;;;;;;;13.97;9.23;;;;;;;36.59;37.40;93714.22;5090475;28;20589;-58
2023/09/12 09:01:37;;;;;;;10.95;9.63;;;;;;;36.38;38.55;93713.94;5090347;28;20109;-59
2023/09/12 09:04:05;;;;;;;10.70;9.60;;;;;;;36.31;38.39;93709.88;5090528;28;20101;-59
2023/09/12 09:06:35;;;;;;;10.25;9.25;;;;;;;35.63;39.10;93708.56;5089225;28;20059;-59
2023/09/12 09:09:04;;;;;;;11.48;9.43;;;;;;;35.39;40.25;93708.81;5090401;28;20077;-59
2023/09/12 09:11:30;;;;;;;11.93;9.60;;;;;;;34.40;42.38;93705.38;5090316;28;20040;-58
2023/09/12 09:13:57;;;;;;;13.05;10.38;;;;;;;35.09;42.90;93711.94;5090253;28;20046;-59
2023/09/12 09:16:24;;;;;;;11.35;10.05;;;;;;;35.65;40.57;93703.78;5090429;28;20036;-59
2023/09/12 09:18:55;;;;;;;11.07;9.90;;;;;;;36.11;40.77;93706.09;5089282;28;20564;-59
2023/09/12 09:21:26;;;;;;;12.23;10.20;;;;;;;36.06;40.51;93712.06;5090296;28;20412;-59
2023/09/12 09:23:54;;;;;;;10.93;9.80;;;;;;;35.13;41.44;93717.97;5089399;28;20160;-59
2023/09/12 09:26:22;;;;;;;12.65;10.00;;;;;;;35.54;40.85;93701.44;5090463;28;20159;-59
2023/09/12 09:29:08;;;;;;;12.90;9.55;;;;;;;36.37;39.02;93704.63;5089348;28;20115;-59
2023/09/12 09:31:35;;;;;;;11.95;9.93;;;;;;;37.33;37.48;93687.72;5089643;28;20048;-59
2023/09/12 09:34:03;;;;;;;12.02;9.70;;;;;;;37.86;36.18;93688.81;5090366;28;20052;-59
2023/09/12 09:36:31;;;;;;;12.00;9.17;;;;;;;38.08;35.73;93683.25;5089346;28;20058;-59
2023/09/12 09:38:59;;;;;;;11.15;8.90;;;;;;;38.35;35.83;93692.41;5090311;28;20052;-59
2023/09/12 09:41:26;;;;;;;12.38;9.10;;;;;;;37.58;36.33;93696.03;5089432;28;20032;-56
2023/09/12 09:43:53;;;;;;;10.52;9.40;;;;;;;37.25;36.10;93693.59;5090069;28;20050;-59
2023/09/12 09:46:20;;;;;;;12.95;8.95;;;;;;;38.02;35.99;93694.97;5089494;28;20041;-59
2023/09/12 09:48:51;;;;;;;10.07;8.90;;;;;;;37.02;35.65;93690.31;5089294;28;20035;-59
2023/09/12 09:51:18;;;;;;;10.90;9.10;;;;;;;37.30;35.64;93689.66;5089873;28;20039;-59
2023/09/12 09:53:47;;;;;;;9.90;8.90;;;;;;;39.28;33.35;93685.25;5089333;28;20052;-59
2023/09/12 09:56:16;;;;;;;9.65;8.70;;;;;;;39.90;32.52;93670.00;5089814;28;20044;-59
2023/09/12 09:58:56;;;;;;;10.07;9.07;;;;;;;40.65;30.86;93670.47;5089143;28;20055;-59
2023/09/12 10:01:28;;;;;;;10.37;8.60;;;;;;;40.53;31.29;93676.22;5077172;28;20052;-59
2023/09/12 10:04:00;;;;;;;9.88;8.50;;;;;;;39.85;30.71;93673.22;5088572;28;20294;-60
2023/09/12 10:06:29;;;;;;;10.75;8.50;;;;;;;41.59;28.21;93666.81;5088607;28;20481;-59
2023/09/12 10:08:58;;;;;;;10.27;8.10;;;;;;;42.53;27.87;93656.31;5089446;28;20056;-59
2023/09/12 10:11:29;;;;;;;9.00;8.10;;;;;;;42.21;27.61;93662.47;5089473;28;20047;-59
2023/09/12 10:13:59;;;;;;;11.73;8.43;;;;;;;43.17;26.56;93660.47;5088451;28;20678;-59
2023/09/12 10:16:44;;;;;;;9.25;8.15;;;;;;;39.93;29.32;93657.28;5089038;28;20404;-59
2023/09/12 10:19:16;;;;;;;9.10;8.20;;;;;;;41.37;28.02;93657.59;5078451;28;20799;-59
2023/09/12 10:22:20;;;;;;;9.73;8.63;;;;;;;39.36;30.18;93664.94;5082873;28;20047;-59
2023/09/12 10:24:49;;;;;;;10.27;8.23;;;;;;;39.43;30.21;93657.53;5088527;28;20354;-59
2023/09/12 10:27:18;;;;;;;10.00;8.20;;;;;;;39.18;29.54;93652.22;5089129;28;20434;-59
2023/09/12 10:29:47;;;;;;;9.98;8.07;;;;;;;39.87;29.05;93651.13;5088391;28;20393;-59
2023/09/12 10:32:14;;;;;;;9.10;8.20;;;;;;;39.79;28.93;93646.97;5089505;28;20388;-59
2023/09/12 10:34:45;;;;;;;9.27;8.27;;;;;;;40.56;27.81;93659.09;5088372;28;20412;-59
2023/09/12 10:37:15;;;;;;;9.10;8.10;;;;;;;39.70;28.93;93651.41;5089082;28;20044;-59
2023/09/12 10:39:46;;;;;;;10.27;8.27;;;;;;;39.80;29.13;93640.59;5088518;28;20055;-59
2023/09/12 10:42:13;;;;;;;10.30;8.10;;;;;;;39.53;29.59;93647.47;5089059;28;20058;-59
2023/09/12 10:44:40;;;;;;;9.10;7.93;;;;;;;39.09;29.62;93645.19;5087075;28;20040;-59
2023/09/12 10:47:08;;;;;;;9.15;8.07;;;;;;;39.56;28.99;93642.59;5089113;28;20284;-59
2023/09/12 10:49:37;;;;;;;10.20;8.25;;;;;;;40.26;28.35;93647.13;5088667;28;20043;-59
2023/09/12 10:52:04;;;;;;;9.13;8.20;;;;;;;40.58;27.74;93644.81;5089020;28;20048;-59
2023/09/12 10:54:38;;;;;;;9.25;7.75;;;;;;;39.66;28.35;93646.16;5085505;28;20488;-59
2023/09/12 10:57:07;;;;;;;10.05;7.88;;;;;;;38.26;28.99;93637.97;5070939;28;20099;-59
2023/09/12 10:59:37;;;;;;;9.63;8.00;;;;;;;36.92;30.83;93642.41;5085976;28;20044;-59
2023/09/12 11:02:36;;;;;;;10.93;8.70;;;;;;;37.01;32.25;93646.69;5089069;28;20513;-59
2023/09/12 11:05:04;;;;;;;9.40;8.40;;;;;;;36.48;31.38;93633.97;5077905;28;20044;-59
2023/09/12 11:07:37;;;;;;;10.18;7.85;;;;;;;34.91;32.84;93634.91;5087988;28;20040;-59
2023/09/12 11:10:19;;;;;;;10.57;8.18;;;;;;;33.62;35.69;93626.63;5087430;28;20052;-58
2023/09/12 11:12:49;;;;;;;9.63;8.63;;;;;;;35.22;33.38;93623.22;5088220;28;20055;-58
2023/09/12 11:15:18;;;;;;;9.57;8.68;;;;;;;34.96;33.65;93628.22;5088997;28;20073;-58
2023/09/12 11:17:46;;;;;;;10.47;9.00;;;;;;;33.81;35.06;93624.09;5075438;28;20042;-58